Time;durP1;ratioP1;P1;durP2;ratioP2;P2;SDS_P1;SDS_P2;PMS_P1;PMS_P2;Temp;Humidity;BMP_temperature;BMP_pressure;BME280_temperature;BME280_humidity;BME280_pressure;Samples;Min_cycle;Max_cycle;Signal;HPM_P1;HPM_P2
2022/10/04 00:05:01;;;;;;;;;;;;;;;;;;;;;
2022/10/04 00:08:06;;;;;;;27.70;10.30;;;;;;;9.09;87.38;98851.16;87120;1290;22633;-74
2022/10/04 00:11:08;;;;;;;15.40;8.30;;;;;;;9.08;87.49;98848.73;87120;1287;23133;-75
2022/10/04 00:14:11;;;;;;;27.00;9.40;;;;;;;9.06;87.67;98851.12;87755;1282;24439;-75
2022/10/04 00:17:13;;;;;;;30.20;9.30;;;;;;;9.04;87.58;98851.54;87676;1284;22607;-74
2022/10/04 00:20:16;;;;;;;27.70;9.60;;;;;;;9.03;87.56;98846.34;87680;1282;24239;-74
2022/10/04 00:23:16;;;;;;;;;;;;;;;;;;;;;
2022/10/04 00:26:19;;;;;;;29.90;8.90;;;;;;;9.01;87.64;98853.23;86774;1294;22832;-74
2022/10/04 00:29:25;;;;;;;;;;;;;;;;;;;;;
2022/10/04 00:31:59;;;;;;;;;;;;;;;;;;;;;
2022/10/04 00:35:09;;;;;;;22.70;8.60;;;;;;;8.97;87.75;98844.33;85533;1312;25333;-75
2022/10/04 00:38:12;;;;;;;18.10;8.30;;;;;;;8.96;87.61;98845.73;85538;1311;24439;-73
2022/10/04 00:41:02;;;;;;;21.90;8.90;;;;;;;8.93;87.60;98840.80;85607;1314;24357;-76
2022/10/04 00:44:12;;;;;;;33.10;9.20;;;;;;;8.92;87.56;98836.29;85632;1313;22627;-74
2022/10/04 00:47:30;;;;;;;20.90;8.50;;;;;;;8.90;87.75;98831.13;85772;1308;23658;-74
2022/10/04 00:50:30;;;;;;;20.50;9.60;;;;;;;8.89;87.68;98826.63;85325;1315;22658;-75
2022/10/04 00:53:31;;;;;;;29.10;9.60;;;;;;;8.85;87.71;98831.83;85354;1317;22601;-74
2022/10/04 00:56:20;;;;;;;32.80;9.30;;;;;;;8.86;87.64;98833.20;85331;1314;22681;-74
2022/10/04 00:59:27;;;;;;;48.30;11.80;;;;;;;8.86;87.81;98836.56;84662;1323;22906;-74
2022/10/04 01:05:45;;;;;;;20.60;8.60;;;;;;;8.86;87.83;98840.05;85384;1314;22635;-74
2022/10/04 01:08:43;;;;;;;26.20;7.80;;;;;;;8.86;87.98;98835.68;86088;1302;22629;-74
2022/10/04 01:11:56;;;;;;;16.50;8.00;;;;;;;8.86;88.05;98832.15;86146;1300;22798;-73
2022/10/04 01:15:01;;;;;;;26.90;9.40;;;;;;;8.87;88.08;98834.39;86601;1296;22735;-74
2022/10/04 01:18:03;;;;;;;27.80;10.20;;;;;;;8.89;88.24;98833.80;86389;1296;22592;-72
2022/10/04 01:21:12;;;;;;;24.30;11.50;;;;;;;8.90;88.26;98831.66;86561;1297;22672;-73
2022/10/04 01:24:14;;;;;;;21.50;10.20;;;;;;;8.91;88.19;98831.44;86572;1296;22637;-74
2022/10/04 01:27:28;;;;;;;28.40;11.50;;;;;;;8.91;88.10;98829.84;86600;1291;22721;-73
2022/10/04 01:30:30;;;;;;;40.70;11.90;;;;;;;8.92;88.32;98825.95;87095;1288;99019;-74
2022/10/04 01:33:34;;;;;;;27.10;11.90;;;;;;;8.93;88.18;98827.15;87128;1288;22792;-73
2022/10/04 01:36:27;;;;;;;;;;;;;;;;;;;;;
2022/10/04 01:39:31;;;;;;;23.60;11.10;;;;;;;8.92;88.33;98823.83;87185;1287;23913;-73
2022/10/04 01:42:40;;;;;;;28.60;9.80;;;;;;;8.92;88.05;98826.31;87314;1281;99278;-73
2022/10/04 01:45:45;;;;;;;24.70;10.40;;;;;;;8.90;88.15;98824.81;87946;1279;23467;-73
2022/10/04 01:48:53;;;;;;;23.60;11.00;;;;;;;8.89;88.05;98826.80;87319;1285;98334;-73
2022/10/04 01:52:05;;;;;;;29.10;11.50;;;;;;;8.90;88.34;98834.64;87529;1285;23046;-74
2022/10/04 01:58:12;;;;;;;17.60;10.30;;;;;;;8.91;88.23;98832.64;87458;1284;22751;-73
2022/10/04 02:01:14;;;;;;;30.60;10.30;;;;;;;8.93;88.47;98834.16;87429;1285;99020;-73
2022/10/04 02:04:01;;;;;;;;;;;;;;;;;;;;;
2022/10/04 02:10:16;;;;;;;28.90;11.40;;;;;;;8.94;88.22;98824.98;87575;1285;22751;-73
2022/10/04 02:19:24;;;;;;;27.40;11.40;;;;;;;8.96;88.35;98824.01;87789;1281;98596;-73
2022/10/04 02:28:12;;;;;;;;;;;;;;;8.95;88.32;98825.48;87115;1290;22938;-73
2022/10/04 02:34:20;;;;;;;22.80;9.90;;;;;;;8.95;88.44;98822.85;87147;1290;24398;-75
2022/10/04 02:37:22;;;;;;;21.50;10.90;;;;;;;8.92;88.33;98819.48;86702;1293;98664;-73
2022/10/04 02:40:25;;;;;;;28.70;9.30;;;;;;;8.93;88.24;98824.17;86396;1300;24633;-75
2022/10/04 02:46:37;;;;;;;;;;;;;;;;;;;;;
2022/10/04 02:49:48;;;;;;;16.50;7.40;;;;;;;8.82;88.15;98826.02;86287;1300;98944;-73
2022/10/04 02:55:58;;;;;;;24.30;7.10;;;;;;;8.73;88.15;98817.66;86262;1300;99118;-74
2022/10/04 02:58:38;;;;;;;25.10;6.60;;;;;;;8.68;88.08;98813.84;86241;1298;22624;-72
2022/10/04 03:01:36;;;;;;;15.50;6.60;;;;;;;8.65;88.12;98815.73;86664;1293;99221;-72
2022/10/04 03:04:39;;;;;;;19.60;7.50;;;;;;;8.60;88.03;98819.95;87228;1287;25346;-73
2022/10/04 03:07:41;;;;;;;16.90;6.90;;;;;;;8.55;88.11;98818.10;86961;1290;99307;-73
2022/10/04 03:10:43;;;;;;;28.50;7.60;;;;;;;8.50;88.07;98825.63;87030;1294;25358;-72
2022/10/04 03:13:45;;;;;;;18.30;7.40;;;;;;;8.47;88.10;98828.42;86665;1294;98741;-72
2022/10/04 03:16:38;;;;;;;11.30;6.70;;;;;;;8.43;88.20;98824.33;86659;1294;23025;-72
2022/10/04 03:19:30;;;;;;;16.80;6.70;;;;;;;8.41;88.20;98823.71;86814;1294;98577;-73
2022/10/04 03:22:33;;;;;;;24.00;7.70;;;;;;;8.39;88.11;98822.06;86711;1294;22630;-73
2022/10/04 03:25:34;;;;;;;28.10;7.50;;;;;;;8.37;88.20;98813.73;86231;1300;98763;-72
2022/10/04 03:28:26;;;;;;;21.40;7.30;;;;;;;8.36;88.19;98813.60;86256;1300;22768;-72
2022/10/04 03:31:27;;;;;;;30.80;7.60;;;;;;;8.35;88.27;98813.80;86098;1302;99318;-72
2022/10/04 03:34:30;;;;;;;25.40;6.90;;;;;;;8.35;88.25;98820.97;86289;1300;25296;-74
2022/10/04 03:40:33;;;;;;;33.40;7.20;;;;;;;8.36;88.42;98835.64;85713;1308;22095;-73
2022/10/04 03:43:33;;;;;;;;;;;;;;;;;;;;;
2022/10/04 03:46:35;;;;;;;22.30;8.20;;;;;;;8.31;88.19;98826.04;85113;1317;22707;-73
2022/10/04 03:49:42;;;;;;;13.40;7.90;;;;;;;8.42;88.40;98840.84;85382;1314;99495;-74
2022/10/04 03:52:43;;;;;;;20.20;8.10;;;;;;;8.44;88.38;98841.80;85417;1314;22877;-74
2022/10/04 03:55:27;;;;;;;31.70;8.10;;;;;;;8.45;88.36;98836.71;85774;1309;98931;-74
2022/10/04 03:58:29;;;;;;;22.70;8.90;;;;;;;8.46;88.43;98835.27;85808;1309;24448;-74
2022/10/04 04:01:25;;;;;;;;;;;;;;;;;;;;;
2022/10/04 04:11:12;;;;;;;20.50;8.50;;;;;;;8.41;88.34;98829.01;86160;1303;24556;-74
2022/10/04 04:14:44;;;;;;;23.80;8.70;;;;;;;8.41;88.43;98829.52;86175;1300;98051;-74
2022/10/04 04:21:02;;;;;;;28.40;8.00;;;;;;;8.54;88.43;98851.77;87363;1292;22778;-74
2022/10/04 04:27:18;;;;;;;12.80;7.20;;;;;;;8.55;88.51;98861.88;87151;1291;24247;-73
2022/10/04 04:33:29;;;;;;;14.00;6.90;;;;;;;8.55;88.30;98862.92;87163;1291;22661;-74
2022/10/04 04:36:31;;;;;;;16.00;6.90;;;;;;;8.54;88.40;98866.11;86577;1297;22636;-73
2022/10/04 04:42:36;;;;;;;19.80;7.60;;;;;;;8.50;88.24;98865.93;86651;1297;24731;-73
2022/10/04 04:48:45;;;;;;;14.00;7.40;;;;;;;8.46;88.31;98869.61;86577;1297;22820;-74
2022/10/04 04:52:03;;;;;;;20.10;8.20;;;;;;;8.44;88.33;98870.89;86603;1297;22572;-74
2022/10/04 04:55:06;;;;;;;15.90;6.50;;;;;;;8.42;88.32;98867.63;86460;1297;99006;-75
2022/10/04 04:58:11;;;;;;;21.10;6.90;;;;;;;8.41;88.30;98865.75;86533;1297;22599;-73
2022/10/04 05:01:21;;;;;;;17.40;6.90;;;;;;;8.40;88.26;98868.08;87299;1296;98680;-75
2022/10/04 05:04:25;;;;;;;18.80;6.80;;;;;;;8.39;88.32;98868.82;86466;1297;22891;-74
2022/10/04 05:13:37;;;;;;;15.20;6.70;;;;;;;8.41;88.46;98890.58;86954;1287;98931;-74
2022/10/04 05:16:38;;;;;;;14.20;7.10;;;;;;;8.44;88.57;98892.05;87303;1286;23104;-74
2022/10/04 05:22:45;;;;;;;24.30;7.20;;;;;;;8.44;88.54;98892.06;86624;1291;22604;-73
2022/10/04 05:25:46;;;;;;;15.10;7.10;;;;;;;8.55;88.50;98904.60;86771;1291;97978;-74
2022/10/04 05:28:28;;;;;;;26.30;7.60;;;;;;;8.59;88.52;98903.04;86860;1291;23724;-75
2022/10/04 05:34:19;;;;;;;13.80;7.20;;;;;;;8.65;88.51;98912.23;86845;1291;22630;-74
2022/10/04 05:37:46;;;;;;;22.80;7.50;;;;;;;8.67;88.53;98915.98;86779;1291;99313;-74
2022/10/04 05:40:50;;;;;;;18.60;6.90;;;;;;;8.71;88.49;98919.36;86839;1291;23152;-74
2022/10/04 05:44:02;;;;;;;20.50;5.50;;;;;;;8.75;88.50;98925.53;87276;1291;98759;-74
2022/10/04 05:47:06;;;;;;;12.50;6.20;;;;;;;8.78;88.57;98930.46;86503;1297;22741;-73
2022/10/04 05:49:59;;;;;;;17.50;5.80;;;;;;;8.81;88.55;98929.81;86328;1297;98698;-72
2022/10/04 05:53:14;;;;;;;14.70;6.20;;;;;;;8.84;88.55;98931.42;86509;1297;22587;-74
2022/10/04 05:56:14;;;;;;;21.80;7.10;;;;;;;8.87;88.46;98942.69;85774;1306;99411;-73
2022/10/04 05:59:18;;;;;;;17.20;6.10;;;;;;;8.89;88.42;98947.34;85803;1309;22727;-73
2022/10/04 06:02:22;;;;;;;21.80;6.80;;;;;;;8.92;88.50;98954.23;85933;1305;98716;-73
2022/10/04 06:12:05;;;;;;;12.90;6.20;;;;;;;9.00;88.08;98957.73;86009;1305;24320;-73
2022/10/04 06:15:37;;;;;;;18.20;5.80;;;;;;;9.03;88.33;98969.18;86075;1305;22859;-74
2022/10/04 06:21:47;;;;;;;11.70;5.10;;;;;;;9.12;88.15;98973.20;85699;1309;24275;-73
2022/10/04 06:24:51;;;;;;;10.10;5.50;;;;;;;9.15;88.15;98973.61;85899;1305;24310;-74
2022/10/04 06:28:08;;;;;;;15.40;5.80;;;;;;;9.19;88.09;98972.39;85842;1305;22665;-73
2022/10/04 06:33:55;;;;;;;22.40;6.30;;;;;;;9.26;88.10;98981.00;86443;1299;24346;-75
2022/10/04 06:40:25;;;;;;;17.20;6.40;;;;;;;9.31;88.02;98986.57;86642;1296;23371;-73
2022/10/04 06:43:45;;;;;;;20.70;5.90;;;;;;;9.35;88.04;98984.84;86602;1296;98717;-74
2022/10/04 06:47:03;;;;;;;17.10;6.10;;;;;;;9.36;88.13;98979.16;86652;1296;25043;-74
2022/10/04 06:50:14;;;;;;;14.90;5.80;;;;;;;9.38;88.05;98984.35;86591;1296;98681;-74
2022/10/04 06:56:37;;;;;;;;;;;;;;;;;;;;;
2022/10/04 06:59:43;;;;;;;14.90;5.60;;;;;;;9.48;87.92;99003.94;86998;1291;26638;-73
2022/10/04 07:02:42;;;;;;;22.40;6.40;;;;;;;9.54;88.02;99009.11;87088;1288;98972;-74
2022/10/04 07:05:51;;;;;;;16.70;6.20;;;;;;;9.59;87.90;99011.16;87098;1290;22562;-74
2022/10/04 07:09:15;;;;;;;13.30;6.00;;;;;;;9.65;88.02;99021.96;87482;1284;97792;-74
2022/10/04 07:15:13;;;;;;;20.40;7.60;;;;;;;9.70;87.95;99027.50;87801;1281;22630;-75
2022/10/04 07:24:38;;;;;;;21.00;6.30;;;;;;;9.79;87.71;99043.14;87775;1281;22684;-75
2022/10/04 07:27:46;;;;;;;15.30;6.20;;;;;;;9.83;87.82;99047.85;87206;1287;23061;-74
2022/10/04 07:30:34;;;;;;;19.60;6.40;;;;;;;9.86;87.68;99045.08;87389;1287;24352;-76
2022/10/04 07:33:22;;;;;;;18.10;6.50;;;;;;;9.88;87.78;99044.66;87431;1287;22714;-74
2022/10/04 07:36:32;;;;;;;18.40;6.20;;;;;;;9.91;87.42;99045.73;87325;1287;22637;-74
2022/10/04 07:39:25;;;;;;;16.80;5.80;;;;;;;9.96;87.42;99048.66;87386;1287;22683;-74
2022/10/04 07:42:33;;;;;;;28.30;5.80;;;;;;;10.00;87.43;99058.84;87531;1285;22573;-75
2022/10/04 07:45:35;;;;;;;;;;;;;;;;;;;;;
2022/10/04 07:47:58;;;;;;;18.20;6.20;;;;;;;10.08;87.50;99063.96;86505;1298;24689;-76
2022/10/04 07:53:26;;;;;;;12.80;6.90;;;;;;;10.12;87.40;99075.20;86303;1300;24301;-76
2022/10/04 07:56:41;;;;;;;17.20;6.50;;;;;;;10.13;87.36;99075.67;86287;1300;98977;-76
2022/10/04 07:59:35;;;;;;;;;;;;;;;;;;;;;
2022/10/04 08:02:31;;;;;;;12.70;6.30;;;;;;;10.17;87.10;99078.45;86355;1303;98805;-78
2022/10/04 08:05:31;;;;;;;11.70;5.70;;;;;;;10.22;87.30;99082.45;86630;1303;22729;-78
2022/10/04 08:08:33;;;;;;;14.40;5.60;;;;;;;10.28;87.03;99078.17;86795;1297;97784;-77
2022/10/04 08:11:42;;;;;;;12.90;5.10;;;;;;;10.33;86.81;99087.08;86994;1297;22656;-80
2022/10/04 08:21:42;;;;;;;13.30;5.30;;;;;;;10.42;86.94;99099.67;88284;1286;22677;-79
2022/10/04 08:24:50;;;;;;;;;;;;;;;;;;;;;
2022/10/04 08:31:12;;;;;;;11.10;5.40;;;;;;;10.50;86.60;99104.59;88540;1275;25412;-78
2022/10/04 08:34:20;;;;;;;17.10;5.70;;;;;;;10.53;86.51;99103.75;84795;1274;22534;-79
2022/10/04 08:40:37;;;;;;;;;;;;;;;;;;;;;
2022/10/04 08:43:55;;;;;;;16.60;4.60;;;;;;;10.60;86.44;99117.12;88316;1280;24235;-79
2022/10/04 08:46:57;;;;;;;17.10;5.60;;;;;;;10.62;86.31;99120.07;88214;1281;24298;-78
2022/10/04 08:49:35;;;;;;;16.70;5.60;;;;;;;10.65;86.32;99116.92;88056;1281;97970;-79
2022/10/04 08:52:57;;;;;;;15.70;5.10;;;;;;;10.68;86.22;99119.05;88035;1284;22611;-79
2022/10/04 08:59:31;;;;;;;8.70;4.40;;;;;;;10.73;86.12;99122.33;88189;1284;26634;-79
2022/10/04 09:02:40;;;;;;;;;;;;;;;;;;;;;
2022/10/04 09:15:41;;;;;;;12.50;4.80;;;;;;;10.83;85.79;99136.32;87866;1290;97397;-78
2022/10/04 09:19:10;;;;;;;9.00;4.80;;;;;;;10.86;86.08;99142.85;87064;1298;22755;-78
2022/10/04 09:25:23;;;;;;;9.90;4.80;;;;;;;10.96;85.96;99150.27;87656;1288;25290;-78
2022/10/04 09:28:24;;;;;;;21.50;5.00;;;;;;;10.95;85.85;99147.17;87762;1290;22669;-78
2022/10/04 09:34:45;;;;;;;11.50;5.60;;;;;;;11.02;85.58;99158.61;87239;1294;22552;-80
2022/10/04 09:38:11;;;;;;;17.00;5.80;;;;;;;11.04;85.56;99162.02;87242;1294;22817;-78
2022/10/04 09:41:29;;;;;;;14.30;5.50;;;;;;;11.08;85.58;99163.60;87222;1294;22636;-78
2022/10/04 09:47:48;;;;;;;13.60;4.10;;;;;;;11.16;85.67;99169.73;87477;1293;22590;-80
2022/10/04 09:50:56;;;;;;;;;;;;;;;;;;;;;
2022/10/04 09:54:11;;;;;;;12.50;4.50;;;;;;;11.28;85.50;99176.91;87465;1294;23113;-79
2022/10/04 09:57:16;;;;;;;8.90;3.90;;;;;;;11.36;85.30;99177.40;87945;1285;98181;-78
2022/10/04 10:00:23;;;;;;;10.10;5.80;;;;;;;11.37;85.11;99182.98;88086;1285;25709;-79
2022/10/04 10:03:26;;;;;;;15.40;4.60;;;;;;;11.36;85.12;99181.61;88027;1285;97473;-78
2022/10/04 10:06:23;;;;;;;16.40;4.70;;;;;;;11.37;85.18;99184.22;88051;1285;22587;-79
2022/10/04 10:13:38;;;;;;;12.50;4.20;;;;;;;11.33;84.85;99183.88;88007;1285;97466;-78
2022/10/04 10:19:04;;;;;;;18.80;4.10;;;;;;;11.33;85.09;99185.31;88535;1280;22802;-79
2022/10/04 10:22:11;;;;;;;13.80;4.20;;;;;;;11.39;85.03;99184.98;88513;1280;98370;-77
2022/10/04 10:25:29;;;;;;;10.20;3.90;;;;;;;11.48;84.92;99190.02;89192;1277;24227;-79
2022/10/04 10:28:41;;;;;;;15.30;3.70;;;;;;;11.52;84.59;99191.08;89033;1276;25265;-79
2022/10/04 10:32:00;;;;;;;;;;;;;;;;;;;;;
2022/10/04 10:35:16;;;;;;;8.00;4.20;;;;;;;11.60;84.69;99194.22;89174;1284;23280;-80
2022/10/04 10:38:17;;;;;;;10.90;4.30;;;;;;;11.65;84.55;99197.29;88966;1284;97524;-81
2022/10/04 10:47:30;;;;;;;11.00;3.40;;;;;;;11.89;84.46;99203.36;90844;1277;22454;-82
2022/10/04 10:52:56;;;;;;;7.60;3.10;;;;;;;12.12;84.34;99204.34;90806;1266;23185;-80
2022/10/04 10:56:11;;;;;;;12.80;3.10;;;;;;;12.23;83.98;99203.96;90734;1278;22365;-81
2022/10/04 10:59:27;;;;;;;9.90;3.10;;;;;;;12.28;83.72;99204.56;90198;1284;23322;-81
2022/10/04 11:02:03;;;;;;;7.30;3.20;;;;;;;12.34;83.70;99205.51;90140;1284;97294;-80
2022/10/04 11:05:30;;;;;;;5.20;2.60;;;;;;;12.40;83.31;99206.92;90595;1279;22459;-78
2022/10/04 11:08:28;;;;;;;6.70;2.90;;;;;;;12.60;83.64;99201.50;90571;1279;97521;-79
2022/10/04 11:11:54;;;;;;;4.10;2.40;;;;;;;12.73;83.36;99201.89;90791;1278;22434;-81
2022/10/04 11:15:14;;;;;;;10.90;2.30;;;;;;;12.80;82.70;99202.23;90657;1277;97279;-80
2022/10/04 11:18:30;;;;;;;6.40;1.90;;;;;;;12.82;82.55;99200.89;90810;1278;22462;-80
2022/10/04 11:21:50;;;;;;;3.70;1.80;;;;;;;12.85;82.62;99200.16;90677;1277;97397;-80
2022/10/04 11:25:10;;;;;;;3.70;1.60;;;;;;;12.97;82.51;99204.48;90799;1278;22504;-77
2022/10/04 11:28:18;;;;;;;;;;;;;;;;;;;;;
2022/10/04 11:31:26;;;;;;;13.10;2.40;;;;;;;13.07;82.05;99211.85;90804;1276;22433;-80
2022/10/04 11:42:41;;;;;;;8.70;2.70;;;;;;;13.20;81.87;99216.48;90941;1264;22437;-79
2022/10/04 11:45:32;;;;;;;;;;;;;;;;;;;;;
2022/10/04 11:48:44;;;;;;;8.90;2.20;;;;;;;13.31;81.82;99215.85;90991;1274;22444;-79
2022/10/04 11:51:49;;;;;;;10.40;4.30;;;;;;;13.40;81.84;99216.98;90355;1281;97490;-80
2022/10/04 11:54:40;;;;;;;;;;;;;;;;;;;;;
2022/10/04 12:06:01;;;;;;;4.50;2.30;;;;;;;13.57;81.35;99219.92;90909;1277;23051;-80
2022/10/04 12:14:06;;;;;;;;;;;;;;;;;;;;;
2022/10/04 12:17:23;;;;;;;9.70;2.20;;;;;;;13.53;80.26;99234.82;90175;1282;22529;-79
2022/10/04 12:24:02;;;;;;;4.90;2.30;;;;;;;13.32;80.28;99236.98;89539;1290;22421;-79
2022/10/04 12:27:17;;;;;;;;;;;;;;;;;;;;;
2022/10/04 12:30:42;;;;;;;6.40;2.60;;;;;;;13.23;80.10;99242.73;89591;1288;22520;-79
2022/10/04 12:33:53;;;;;;;6.50;2.30;;;;;;;13.17;80.30;99245.20;89531;1288;97377;-80
2022/10/04 12:37:12;;;;;;;;;;;;;;;;;;;;;
2022/10/04 12:40:16;;;;;;;8.60;2.60;;;;;;;13.11;80.26;99244.80;89561;1290;97802;-82
2022/10/04 12:43:20;;;;;;;;;;;;;;;;;;;;;
2022/10/04 12:46:28;;;;;;;8.70;2.30;;;;;;;13.17;80.08;99245.91;89520;1290;98110;-81
2022/10/04 12:55:52;;;;;;;5.90;1.90;;;;;;;13.01;79.77;99256.46;90886;1274;22535;-81
2022/10/04 13:04:04;;;;;;;5.40;2.30;;;;;;;12.87;79.79;99265.88;90828;1274;97726;-79
2022/10/04 13:06:12;;;;;;;7.70;2.30;;;;;;;12.77;79.28;99272.18;90988;1277;22438;-78
2022/10/04 13:08:25;;;;;;;12.00;2.50;;;;;;;12.72;79.45;99273.34;90926;1274;97500;-78
2022/10/04 13:10:29;;;;;;;6.60;2.60;;;;;;;12.64;79.26;99274.46;90979;1276;22428;-78
2022/10/04 13:12:51;;;;;;;5.50;2.20;;;;;;;12.59;79.51;99274.52;91049;1274;22468;-79
2022/10/04 13:15:22;;;;;;;7.40;2.40;;;;;;;12.54;79.38;99275.85;90903;1274;97350;-78
2022/10/04 13:17:43;;;;;;;6.00;2.50;;;;;;;12.53;79.47;99279.24;90946;1276;22460;-79
2022/10/04 13:20:11;;;;;;;6.30;2.40;;;;;;;12.54;79.19;99272.86;90706;1277;97693;-79
2022/10/04 13:22:31;;;;;;;4.10;2.00;;;;;;;12.58;79.42;99274.43;90909;1275;22473;-78
2022/10/04 13:24:54;;;;;;;6.60;1.90;;;;;;;12.64;79.55;99276.22;90969;1274;22440;-78
2022/10/04 13:27:06;;;;;;;4.90;2.10;;;;;;;12.70;79.43;99276.42;90875;1277;97580;-79
2022/10/04 13:29:14;;;;;;;4.70;1.90;;;;;;;12.74;79.34;99275.70;90836;1277;22491;-78
2022/10/04 13:31:33;;;;;;;6.70;2.00;;;;;;;12.76;79.04;99279.09;90818;1278;22609;-79
2022/10/04 13:33:56;;;;;;;10.30;2.40;;;;;;;12.79;79.06;99282.52;90919;1277;22422;-80
2022/10/04 13:36:12;;;;;;;8.90;2.50;;;;;;;12.78;78.98;99280.23;90974;1277;22570;-78
2022/10/04 13:38:26;;;;;;;4.40;2.30;;;;;;;12.77;78.65;99283.30;90693;1279;98684;-78
2022/10/04 13:40:36;;;;;;;12.80;2.60;;;;;;;12.75;78.71;99286.02;90859;1277;23361;-79
2022/10/04 13:43:22;;;;;;;8.50;2.60;;;;;;;12.73;78.80;99287.73;90911;1277;22523;-79
2022/10/04 13:45:39;;;;;;;4.80;2.70;;;;;;;12.68;78.44;99289.05;90777;1277;97300;-77
2022/10/04 13:47:53;;;;;;;5.80;2.70;;;;;;;12.65;78.60;99286.22;90854;1278;22408;-79
2022/10/04 13:50:25;;;;;;;5.60;2.40;;;;;;;12.64;78.80;99287.16;90745;1278;97726;-79
2022/10/04 13:57:47;;;;;;;6.60;2.60;;;;;;;12.63;78.66;99291.98;90870;1274;97430;-78
2022/10/04 14:00:01;;;;;;;8.60;2.50;;;;;;;12.66;78.65;99297.09;90822;1277;23189;-79
2022/10/04 14:02:43;;;;;;;7.00;2.50;;;;;;;12.68;78.66;99297.55;90783;1277;97739;-79
2022/10/04 14:05:00;;;;;;;14.20;2.60;;;;;;;12.70;78.72;99304.30;90789;1278;22611;-78
2022/10/04 14:07:19;;;;;;;10.20;3.40;;;;;;;12.72;78.47;99302.77;90958;1276;22388;-79
2022/10/04 14:09:58;;;;;;;8.00;2.30;;;;;;;12.74;78.56;99301.61;90769;1277;98602;-78
2022/10/04 14:12:24;;;;;;;7.10;2.40;;;;;;;12.75;78.21;99304.39;90859;1277;22444;-80
2022/10/04 14:14:52;;;;;;;5.60;2.40;;;;;;;12.76;78.18;99305.77;90839;1274;97691;-78
2022/10/04 14:17:21;;;;;;;6.40;2.70;;;;;;;12.78;78.13;99302.31;90877;1276;22419;-80
2022/10/04 14:20:01;;;;;;;13.40;2.40;;;;;;;12.82;78.11;99301.38;90835;1276;22520;-80
2022/10/04 14:22:43;;;;;;;10.10;2.80;;;;;;;12.87;77.95;99294.97;90929;1276;22715;-80
2022/10/04 14:25:22;;;;;;;7.10;2.30;;;;;;;12.91;78.16;99296.31;90913;1276;22429;-79
2022/10/04 14:27:56;;;;;;;4.80;2.10;;;;;;;12.94;77.88;99302.36;90762;1277;98017;-79
2022/10/04 14:30:31;;;;;;;5.80;2.20;;;;;;;12.92;77.82;99300.52;90815;1279;22675;-79
2022/10/04 14:32:53;;;;;;;6.80;1.90;;;;;;;12.90;77.50;99301.52;90833;1276;97749;-78
2022/10/04 14:35:06;;;;;;;4.70;1.90;;;;;;;12.88;77.83;99300.55;90721;1279;23325;-79
2022/10/04 14:37:33;;;;;;;7.10;2.50;;;;;;;12.87;78.03;99300.80;90915;1276;22494;-78
2022/10/04 14:39:43;;;;;;;7.20;2.40;;;;;;;12.86;77.86;99304.20;90866;1277;22433;-78
2022/10/04 14:42:04;;;;;;;12.70;2.80;;;;;;;12.84;77.79;99302.34;90809;1277;23255;-79
2022/10/04 14:44:24;;;;;;;10.40;2.20;;;;;;;12.81;77.77;99300.21;90727;1277;98577;-80
2022/10/04 14:46:59;;;;;;;4.90;1.80;;;;;;;12.79;77.85;99297.85;90872;1276;22394;-79
2022/10/04 14:49:56;;;;;;;7.40;2.50;;;;;;;12.76;77.66;99298.86;90933;1276;22343;-80
2022/10/04 14:52:32;;;;;;;4.40;2.30;;;;;;;12.73;77.69;99299.52;90440;1282;22588;-79
2022/10/04 14:54:40;;;;;;;6.20;3.20;;;;;;;12.75;77.49;99302.77;90289;1284;23083;-79
2022/10/04 14:56:45;;;;;;;7.00;2.70;;;;;;;12.76;77.53;99303.61;90101;1284;97739;-80
2022/10/04 14:59:26;;;;;;;8.80;3.00;;;;;;;12.78;77.05;99309.34;90200;1283;22577;-79
2022/10/04 15:01:31;;;;;;;17.10;4.00;;;;;;;12.78;77.01;99308.64;89983;1285;97952;-79
2022/10/04 15:03:59;;;;;;;10.10;3.20;;;;;;;12.76;77.07;99309.80;90199;1284;22477;-79
2022/10/04 15:06:48;;;;;;;13.10;3.10;;;;;;;12.74;76.85;99314.11;90382;1282;22417;-79
2022/10/04 15:09:19;;;;;;;10.70;2.80;;;;;;;12.72;76.82;99316.71;89996;1284;97783;-80
2022/10/04 15:11:52;;;;;;;7.90;3.20;;;;;;;12.70;76.78;99319.30;90267;1284;22375;-80
2022/10/04 15:20:33;;;;;;;12.10;2.90;;;;;;;12.59;76.75;99324.60;90820;1273;22466;-77
2022/10/04 15:26:58;;;;;;;11.50;3.30;;;;;;;12.49;77.13;99330.80;90809;1274;98980;-77
2022/10/04 15:30:01;;;;;;;15.10;3.70;;;;;;;12.43;76.99;99330.16;90846;1273;22427;-78
2022/10/04 15:32:55;;;;;;;;;;;;;;;;;;;;;
2022/10/04 15:36:15;;;;;;;15.80;3.70;;;;;;;12.35;76.96;99342.38;90895;1274;23328;-79
2022/10/04 15:39:03;;;;;;;11.80;3.70;;;;;;;12.30;77.05;99341.91;90818;1273;97660;-77
2022/10/04 15:42:05;;;;;;;;;;;;;;;;;;;;;
2022/10/04 15:44:57;;;;;;;18.60;3.20;;;;;;;12.20;77.43;99342.22;90120;1282;97615;-78
2022/10/04 15:48:29;;;;;;;10.70;3.40;;;;;;;12.14;77.38;99346.23;90186;1282;22346;-78
2022/10/04 15:51:45;;;;;;;9.90;3.00;;;;;;;12.05;77.62;99347.02;89146;1293;98954;-78
2022/10/04 15:54:35;;;;;;;13.20;3.30;;;;;;;11.97;77.62;99350.36;89262;1291;23613;-78
2022/10/04 15:58:04;;;;;;;9.60;3.60;;;;;;;11.91;77.54;99351.85;89099;1293;99649;-76
2022/10/04 16:01:25;;;;;;;21.70;4.10;;;;;;;11.84;77.35;99356.05;89256;1291;22634;-78
2022/10/04 16:04:24;;;;;;;;;;;;;;;;;;;;;
2022/10/04 16:07:33;;;;;;;15.30;4.10;;;;;;;11.71;77.54;99360.19;89341;1291;22457;-80
2022/10/04 16:10:38;;;;;;;6.40;3.70;;;;;;;11.62;77.43;99359.90;89120;1293;97848;-79
2022/10/04 16:13:36;;;;;;;19.00;4.40;;;;;;;11.54;77.57;99361.33;89358;1291;22653;-76
2022/10/04 16:20:04;;;;;;;;;;;;;;;;;;;;;
2022/10/04 16:23:11;;;;;;;7.10;4.30;;;;;;;11.20;77.69;99372.16;88712;1300;22456;-78
2022/10/04 16:36:42;;;;;;;11.20;4.80;;;;;;;10.60;78.04;99374.73;88224;1286;22580;-75
2022/10/04 16:43:26;;;;;;;16.60;4.80;;;;;;;10.33;78.12;99386.73;87451;1292;22724;-76
2022/10/04 16:49:52;;;;;;;;;;;;;;;;;;;;;
2022/10/04 16:56:26;;;;;;;23.30;5.40;;;;;;;9.74;78.32;99399.54;87102;1295;22626;-76
2022/10/04 17:06:18;;;;;;;9.20;4.60;;;;;;;9.46;78.69;99414.29;86633;1300;22659;-77
2022/10/04 17:09:36;;;;;;;22.20;6.00;;;;;;;9.39;78.98;99417.69;86701;1300;97295;-77
2022/10/04 17:16:15;;;;;;;20.50;7.10;;;;;;;9.29;79.00;99421.02;85631;1312;544404;-76
2022/10/04 17:19:07;;;;;;;;;;;;;;;;;;;;;
2022/10/04 17:22:11;;;;;;;18.00;6.70;;;;;;;9.16;79.06;99427.77;88103;1280;98215;-76
2022/10/04 17:25:19;;;;;;;22.20;6.70;;;;;;;9.11;79.47;99429.52;88180;1280;24287;-75
2022/10/04 17:28:52;;;;;;;14.70;6.30;;;;;;;9.07;79.19;99433.55;88243;1280;97146;-77
2022/10/04 17:31:42;;;;;;;30.70;8.90;;;;;;;8.96;79.11;99439.88;84605;1278;22651;-76
2022/10/04 17:35:02;;;;;;;28.70;7.80;;;;;;;8.84;79.32;99441.16;88253;1277;98809;-75
2022/10/04 17:38:16;;;;;;;53.00;7.80;;;;;;;8.76;79.17;99440.55;88401;1278;23182;-78
2022/10/04 17:41:26;;;;;;;32.60;8.60;;;;;;;8.67;79.72;99445.73;88443;1278;22571;-76
2022/10/04 17:44:35;;;;;;;;;;;;;;;;;;;;;
2022/10/04 17:56:57;;;;;;;70.00;22.10;;;;;;;8.33;79.86;99457.48;87597;1290;25508;-78
2022/10/04 17:59:38;;;;;;;60.60;24.50;;;;;;;8.32;79.93;99461.02;87564;1290;23992;-77
2022/10/04 18:02:42;;;;;;;67.90;26.30;;;;;;;8.29;79.92;99463.89;87538;1290;22609;-77
2022/10/04 18:05:53;;;;;;;49.50;27.90;;;;;;;8.21;79.99;99463.61;87965;1300;22611;-77
2022/10/04 18:09:04;;;;;;;80.30;34.50;;;;;;;8.16;80.13;99467.09;88209;1300;23046;-76
2022/10/04 18:12:34;;;;;;;;;;;;;;;;;;;;;
2022/10/04 18:15:36;;;;;;;73.80;33.10;;;;;;;8.06;80.18;99479.82;86984;1300;23541;-78
2022/10/04 18:18:47;;;;;;;65.50;31.90;;;;;;;7.99;79.99;99487.02;87169;1300;22623;-77
2022/10/04 18:21:44;;;;;;;66.60;27.80;;;;;;;7.93;80.14;99493.69;86782;1303;99680;-77
2022/10/04 18:25:02;;;;;;;48.70;30.10;;;;;;;7.88;80.05;99497.50;86848;1300;22592;-76
2022/10/04 18:28:31;;;;;;;49.50;28.60;;;;;;;7.79;80.11;99502.11;87121;1298;97424;-79
2022/10/04 18:31:28;;;;;;;62.20;29.10;;;;;;;7.66;80.07;99499.85;86573;1309;26043;-77
2022/10/04 18:34:34;;;;;;;62.50;27.60;;;;;;;7.59;80.02;99494.46;85758;1315;98085;-76
2022/10/04 18:37:45;;;;;;;48.50;28.40;;;;;;;7.56;80.36;99492.11;85778;1317;24373;-75
2022/10/04 18:40:40;;;;;;;70.20;30.70;;;;;;;7.47;80.27;99495.14;85854;1316;98727;-76
2022/10/04 18:43:44;;;;;;;54.60;28.70;;;;;;;7.43;80.31;99501.35;86637;1306;24247;-77
2022/10/04 18:47:02;;;;;;;57.30;26.20;;;;;;;7.43;80.43;99504.17;86632;1303;97812;-75
2022/10/04 18:50:24;;;;;;;;;;;;;;;;;;;;;
2022/10/04 18:53:21;;;;;;;56.20;24.80;;;;;;;7.34;80.40;99503.36;86073;1312;98212;-75
2022/10/04 18:56:37;;;;;;;84.80;24.40;;;;;;;7.25;80.31;99500.63;86205;1313;23597;-74